createdAt,value
2023-02-23T00:02:05.950Z,4.10
2023-02-23T00:04:33.804Z,4.10
2023-02-23T00:07:00.934Z,4.10
2023-02-23T00:09:28.043Z,4.10
2023-02-23T00:11:57.868Z,4.10
2023-02-23T00:14:31.060Z,4.00
2023-02-23T00:16:59.864Z,4.10
2023-02-23T00:19:26.897Z,4.10
2023-02-23T00:21:54.377Z,4.10
2023-02-23T00:24:21.808Z,4.10
2023-02-23T00:26:51.241Z,4.00
2023-02-23T00:29:21.017Z,4.00
2023-02-23T00:31:49.271Z,4.00
2023-02-23T00:34:22.040Z,4.00
2023-02-23T00:36:55.087Z,4.00
2023-02-23T00:39:26.516Z,4.00
2023-02-23T00:41:54.795Z,4.00
2023-02-23T00:44:23.528Z,4.00
2023-02-23T00:46:51.692Z,3.90
2023-02-23T00:49:20.769Z,3.90
2023-02-23T00:51:47.972Z,3.90
2023-02-23T00:54:16.288Z,3.90
2023-02-23T00:56:43.031Z,3.90
2023-02-23T00:59:10.150Z,3.90
2023-02-23T01:01:38.485Z,3.90
2023-02-23T01:04:07.227Z,3.90
2023-02-23T01:06:37.586Z,3.90
2023-02-23T01:09:09.549Z,3.90
2023-02-23T01:11:36.419Z,3.90
2023-02-23T01:14:03.714Z,3.90
2023-02-23T01:16:32.999Z,3.80
2023-02-23T01:19:03.455Z,3.80
2023-02-23T01:21:33.741Z,3.90
2023-02-23T01:24:00.957Z,3.80
2023-02-23T01:26:30.511Z,3.90
2023-02-23T01:29:00.698Z,3.90
2023-02-23T01:31:29.118Z,3.90
2023-02-23T01:33:57.789Z,4.00
2023-02-23T01:36:29.080Z,4.00
2023-02-23T01:38:57.036Z,4.00
2023-02-23T01:41:26.260Z,4.00
2023-02-23T01:44:01.091Z,4.10
2023-02-23T01:46:28.104Z,4.00
2023-02-23T01:48:56.487Z,4.00
2023-02-23T01:51:27.678Z,4.00
2023-02-23T01:54:04.562Z,3.90
2023-02-23T01:56:43.420Z,3.90
2023-02-23T01:59:12.357Z,3.90
2023-02-23T02:01:40.753Z,3.80
2023-02-23T02:04:09.039Z,3.80
2023-02-23T02:06:39.160Z,3.80
2023-02-23T02:09:15.516Z,3.80
2023-02-23T02:11:44.644Z,3.80
2023-02-23T02:14:18.619Z,3.80
2023-02-23T02:17:03.535Z,3.90
2023-02-23T02:19:45.280Z,3.90
2023-02-23T02:22:30.738Z,3.80
2023-02-23T02:25:32.887Z,3.80
2023-02-23T02:28:22.274Z,3.80
2023-02-23T02:31:10.667Z,3.80
2023-02-23T02:33:49.681Z,3.80
2023-02-23T02:36:41.350Z,3.80
2023-02-23T02:39:11.131Z,3.80
2023-02-23T02:42:05.786Z,3.80
2023-02-23T02:44:57.479Z,3.80
2023-02-23T02:47:36.622Z,3.80
2023-02-23T02:50:11.071Z,3.80
2023-02-23T02:52:44.075Z,3.80
2023-02-23T02:55:37.136Z,3.80
2023-02-23T02:58:07.881Z,3.90
2023-02-23T03:01:01.772Z,3.80
2023-02-23T03:03:57.662Z,3.80
2023-02-23T03:06:52.346Z,3.80
2023-02-23T03:10:00.348Z,3.80
2023-02-23T03:13:16.167Z,3.80
2023-02-23T03:16:18.769Z,3.80
2023-02-23T03:19:13.163Z,3.90
2023-02-23T03:22:10.503Z,3.90
2023-02-23T03:25:06.577Z,3.90
2023-02-23T03:28:35.197Z,3.90
2023-02-23T03:31:55.757Z,3.90
2023-02-23T03:34:59.777Z,3.90
2023-02-23T03:37:55.354Z,3.90
2023-02-23T03:40:45.526Z,3.90
2023-02-23T03:43:38.105Z,3.90
2023-02-23T03:46:27.714Z,3.90
2023-02-23T03:49:15.859Z,3.90
2023-02-23T03:52:05.390Z,4.00
2023-02-23T03:54:56.372Z,4.00
2023-02-23T03:57:46.436Z,4.00
2023-02-23T04:00:37.994Z,4.00
2023-02-23T04:03:24.802Z,4.00
2023-02-23T04:06:13.162Z,4.00
2023-02-23T04:08:59.218Z,4.00
2023-02-23T04:12:00.818Z,4.00
2023-02-23T04:14:39.870Z,4.10
2023-02-23T04:17:08.173Z,4.10
2023-02-23T04:19:34.878Z,4.10
2023-02-23T04:22:01.715Z,4.00
2023-02-23T04:24:28.385Z,4.10
2023-02-23T04:26:55.198Z,4.00
2023-02-23T04:29:21.914Z,4.00
2023-02-23T04:31:48.951Z,4.10
2023-02-23T04:34:15.785Z,4.10
2023-02-23T04:36:42.695Z,4.10
2023-02-23T04:39:09.418Z,4.10
2023-02-23T04:41:36.268Z,4.10
2023-02-23T04:44:02.986Z,4.10
2023-02-23T04:46:30.356Z,4.10
2023-02-23T04:48:57.116Z,4.10
2023-02-23T04:51:24.056Z,4.10
2023-02-23T04:53:51.501Z,4.10
2023-02-23T04:56:18.198Z,4.10
2023-02-23T04:58:44.957Z,4.10
2023-02-23T05:01:11.727Z,4.10
2023-02-23T05:03:38.547Z,4.10
2023-02-23T05:06:05.598Z,4.10
2023-02-23T05:08:32.410Z,4.10
2023-02-23T05:10:59.112Z,4.10
2023-02-23T05:13:25.918Z,4.10
2023-02-23T05:15:57.614Z,4.10
2023-02-23T05:18:25.361Z,4.10
2023-02-23T05:20:53.485Z,4.10
2023-02-23T05:23:21.900Z,4.10
2023-02-23T05:25:48.643Z,4.10
2023-02-23T05:28:15.381Z,4.10
2023-02-23T05:30:42.182Z,4.10
2023-02-23T05:33:08.998Z,4.20
2023-02-23T05:35:35.745Z,4.20
2023-02-23T05:38:02.460Z,4.20
2023-02-23T05:40:29.219Z,4.20
2023-02-23T05:42:59.320Z,4.20
2023-02-23T05:45:26.484Z,4.20
2023-02-23T05:47:53.234Z,4.20
2023-02-23T05:50:20.039Z,4.30
2023-02-23T05:52:46.740Z,4.30
2023-02-23T05:55:13.566Z,4.30
2023-02-23T05:57:44.216Z,4.30
2023-02-23T06:00:13.501Z,4.30
2023-02-23T06:02:41.791Z,4.30
2023-02-23T06:05:10.709Z,4.30
2023-02-23T06:07:37.685Z,4.30
2023-02-23T06:10:05.702Z,4.30
2023-02-23T06:12:32.393Z,4.40
2023-02-23T06:14:59.132Z,4.40
2023-02-23T06:17:25.889Z,4.40
2023-02-23T06:19:52.606Z,4.40
2023-02-23T06:22:19.363Z,4.40
2023-02-23T06:24:46.146Z,4.50
2023-02-23T06:27:14.043Z,4.50
2023-02-23T06:29:41.616Z,4.50
2023-02-23T06:32:08.448Z,4.50
2023-02-23T06:34:35.192Z,4.50
2023-02-23T06:37:01.855Z,4.50
2023-02-23T06:39:28.717Z,4.50
2023-02-23T06:41:55.403Z,4.50
2023-02-23T06:44:22.648Z,4.60
2023-02-23T06:46:49.490Z,4.60
2023-02-23T06:49:16.708Z,4.60
2023-02-23T06:51:43.543Z,4.60
2023-02-23T06:54:10.300Z,4.60
2023-02-23T06:56:37.061Z,4.70
2023-02-23T06:59:03.763Z,4.70
2023-02-23T07:01:31.131Z,4.70
2023-02-23T07:03:57.905Z,4.80
2023-02-23T07:06:24.769Z,4.80
2023-02-23T07:08:51.544Z,4.80
2023-02-23T07:11:20.294Z,4.90
2023-02-23T07:13:47.259Z,4.90
2023-02-23T07:16:16.238Z,4.90
2023-02-23T07:18:43.057Z,5.00
2023-02-23T07:21:09.830Z,5.00
2023-02-23T07:23:36.581Z,5.00
2023-02-23T07:26:03.324Z,5.00
2023-02-23T07:28:30.053Z,5.00
2023-02-23T07:30:57.602Z,5.00
2023-02-23T07:33:25.156Z,5.10
2023-02-23T07:35:52.146Z,5.10
2023-02-23T07:38:19.504Z,5.20
2023-02-23T07:40:46.295Z,5.20
2023-02-23T07:43:13.092Z,5.30
2023-02-23T07:45:39.790Z,5.30
2023-02-23T07:48:06.669Z,5.30
2023-02-23T07:50:33.465Z,5.40
2023-02-23T07:53:00.261Z,5.40
2023-02-23T07:55:27.163Z,5.50
2023-02-23T07:57:54.008Z,5.50
2023-02-23T08:00:21.084Z,5.50
2023-02-23T08:02:47.799Z,5.60
2023-02-23T08:05:14.495Z,5.60
2023-02-23T08:07:41.212Z,5.60
2023-02-23T08:10:08.362Z,5.60
2023-02-23T08:12:35.196Z,5.60
2023-02-23T08:15:03.112Z,5.70
2023-02-23T08:17:30.274Z,5.80
2023-02-23T08:19:57.075Z,5.70
2023-02-23T08:22:23.772Z,5.80
2023-02-23T08:24:50.482Z,5.90
2023-02-23T08:27:17.330Z,5.90
2023-02-23T08:29:44.160Z,6.00
2023-02-23T08:32:11.082Z,6.00
2023-02-23T08:34:43.239Z,6.10
2023-02-23T08:37:10.585Z,6.10
2023-02-23T08:39:37.896Z,6.20
2023-02-23T08:42:05.213Z,6.20
2023-02-23T08:44:32.016Z,6.30
2023-02-23T08:46:58.898Z,6.40
2023-02-23T08:49:25.952Z,6.40
2023-02-23T08:51:52.703Z,6.30
2023-02-23T08:54:20.428Z,6.40
2023-02-23T08:56:47.199Z,6.40
2023-02-23T08:59:14.911Z,6.50
2023-02-23T09:01:43.069Z,6.70
2023-02-23T09:04:09.895Z,6.70
2023-02-23T09:06:37.687Z,6.80
2023-02-23T09:09:04.652Z,6.90
2023-02-23T09:11:31.351Z,7.00
2023-02-23T09:13:58.283Z,7.00
2023-02-23T09:16:25.178Z,7.10
2023-02-23T09:18:52.203Z,7.20
2023-02-23T09:21:25.296Z,7.20
2023-02-23T09:23:54.485Z,7.20
2023-02-23T09:26:22.055Z,7.30
2023-02-23T09:28:49.824Z,7.30
2023-02-23T09:31:21.246Z,7.30
2023-02-23T09:33:48.728Z,7.40
2023-02-23T09:36:18.547Z,7.50
2023-02-23T09:38:46.832Z,7.60
2023-02-23T09:41:25.843Z,7.60
2023-02-23T09:44:12.013Z,7.70
2023-02-23T09:47:22.766Z,7.70
2023-02-23T09:49:51.930Z,7.80
2023-02-23T09:52:24.012Z,7.90
2023-02-23T09:54:50.944Z,8.10
2023-02-23T09:57:26.866Z,8.20
2023-02-23T09:59:53.649Z,8.30
2023-02-23T10:02:44.978Z,8.30
2023-02-23T10:05:14.113Z,8.30
2023-02-23T10:07:55.877Z,8.30
2023-02-23T10:10:46.329Z,8.20
2023-02-23T10:13:29.483Z,8.30
2023-02-23T10:16:12.387Z,8.40
2023-02-23T10:18:51.164Z,8.50
2023-02-23T10:21:35.246Z,8.40
2023-02-23T10:24:32.964Z,8.50
2023-02-23T10:27:21.395Z,8.50
2023-02-23T10:30:00.602Z,8.70
2023-02-23T10:32:38.770Z,8.80
2023-02-23T10:35:15.397Z,8.90
2023-02-23T10:37:42.430Z,8.90
2023-02-23T10:40:17.187Z,8.90
2023-02-23T10:42:44.045Z,8.90
2023-02-23T10:45:19.666Z,9.00
2023-02-23T10:47:48.440Z,9.10
2023-02-23T10:50:15.715Z,9.10
2023-02-23T10:52:46.422Z,9.20
2023-02-23T10:55:30.715Z,9.30
2023-02-23T10:58:18.409Z,9.40
2023-02-23T11:00:52.706Z,9.50
2023-02-23T11:03:30.445Z,9.60
2023-02-23T11:05:57.168Z,9.60
2023-02-23T11:08:41.963Z,9.60
2023-02-23T11:11:20.543Z,9.80
2023-02-23T11:13:50.900Z,9.90
2023-02-23T11:16:30.395Z,10.10
2023-02-23T11:19:00.985Z,10.30
2023-02-23T11:21:35.373Z,10.40
2023-02-23T11:24:26.824Z,10.60
2023-02-23T11:26:57.998Z,10.70
2023-02-23T11:29:35.594Z,10.90
2023-02-23T11:32:10.520Z,10.90
2023-02-23T11:34:40.782Z,11.10
2023-02-23T11:37:20.095Z,11.30
2023-02-23T11:39:58.186Z,11.40
2023-02-23T11:42:33.458Z,11.50
2023-02-23T11:45:11.434Z,11.40
2023-02-23T11:47:48.182Z,11.50
2023-02-23T11:50:29.082Z,11.40
2023-02-23T11:53:40.226Z,11.40
2023-02-23T11:56:13.484Z,11.00
2023-02-23T11:58:45.806Z,11.20
2023-02-23T12:01:17.159Z,11.30
2023-02-23T12:03:52.059Z,11.20
2023-02-23T12:06:33.186Z,11.10
2023-02-23T12:09:27.825Z,11.10
2023-02-23T12:12:11.108Z,11.20
2023-02-23T12:14:43.608Z,11.30
2023-02-23T12:17:47.232Z,11.50
2023-02-23T12:20:25.474Z,11.90
2023-02-23T12:22:58.901Z,12.10
2023-02-23T12:25:44.072Z,12.10
2023-02-23T12:28:31.436Z,12.00
2023-02-23T12:31:42.323Z,12.00
2023-02-23T12:34:28.270Z,12.10
2023-02-23T12:37:13.462Z,12.20
2023-02-23T12:39:45.178Z,12.10
2023-02-23T12:42:26.186Z,12.00
2023-02-23T12:44:56.002Z,12.00
2023-02-23T12:47:49.316Z,12.00
2023-02-23T12:50:33.853Z,12.10
2023-02-23T12:53:17.379Z,12.20
2023-02-23T12:56:32.876Z,12.10
2023-02-23T12:59:14.453Z,12.00
2023-02-23T13:01:54.661Z,12.10
2023-02-23T13:04:48.785Z,11.90
2023-02-23T13:07:22.030Z,11.90
2023-02-23T13:09:58.175Z,12.00
2023-02-23T13:12:50.806Z,12.00
2023-02-23T13:15:32.316Z,11.90
2023-02-23T13:18:14.203Z,12.00
2023-02-23T13:20:48.924Z,12.10
2023-02-23T13:23:15.614Z,12.00
2023-02-23T13:25:55.598Z,12.10
2023-02-23T13:28:47.723Z,12.20
2023-02-23T13:31:28.234Z,12.10
2023-02-23T13:33:58.114Z,12.10
2023-02-23T13:36:29.500Z,11.90
2023-02-23T13:39:23.601Z,12.00
2023-02-23T13:42:11.861Z,12.00
2023-02-23T13:44:59.579Z,12.00
2023-02-23T13:47:41.246Z,12.10
2023-02-23T13:50:40.441Z,12.20
2023-02-23T13:53:27.283Z,12.20
2023-02-23T13:56:04.337Z,12.10
2023-02-23T13:58:32.674Z,12.20
2023-02-23T14:01:14.308Z,12.30
2023-02-23T14:03:58.722Z,12.40
2023-02-23T14:06:28.599Z,12.20
2023-02-23T14:09:07.219Z,12.10
2023-02-23T14:11:46.051Z,12.00
2023-02-23T14:14:36.088Z,12.10
2023-02-23T14:17:15.750Z,12.20
2023-02-23T14:20:06.516Z,12.20
2023-02-23T14:22:36.803Z,12.20
2023-02-23T14:25:34.523Z,12.00
2023-02-23T14:28:22.346Z,11.90
2023-02-23T14:31:03.637Z,12.10
2023-02-23T14:33:38.462Z,12.10
2023-02-23T14:36:24.066Z,12.00
2023-02-23T14:38:57.020Z,12.00
2023-02-23T14:41:38.627Z,12.10
2023-02-23T14:44:41.375Z,11.90
2023-02-23T14:47:41.180Z,11.90
2023-02-23T14:50:17.432Z,12.10
2023-02-23T14:52:44.215Z,12.20
2023-02-23T14:55:23.761Z,12.10
2023-02-23T14:57:51.031Z,12.20
2023-02-23T15:00:23.371Z,12.30
2023-02-23T15:03:01.312Z,12.30
2023-02-23T15:05:46.240Z,12.10
2023-02-23T15:08:19.137Z,12.20
2023-02-23T15:10:48.963Z,12.10
2023-02-23T15:13:29.286Z,11.90
2023-02-23T15:15:58.402Z,11.90
2023-02-23T15:18:32.722Z,11.80
2023-02-23T15:20:59.940Z,11.70
2023-02-23T15:23:26.870Z,11.70
2023-02-23T15:25:53.632Z,11.70
2023-02-23T15:28:28.023Z,11.60
2023-02-23T15:30:56.815Z,11.60
2023-02-23T15:33:28.255Z,11.50
2023-02-23T15:36:08.192Z,11.50
2023-02-23T15:38:43.811Z,11.40
2023-02-23T15:41:36.795Z,11.40
2023-02-23T15:44:24.195Z,11.30
2023-02-23T15:47:17.047Z,11.30
2023-02-23T15:49:43.990Z,11.30
2023-02-23T15:52:17.745Z,11.40
2023-02-23T15:55:01.613Z,11.40
2023-02-23T15:57:59.539Z,11.40
2023-02-23T16:00:51.291Z,11.30
2023-02-23T16:03:30.693Z,11.20
2023-02-23T16:06:24.201Z,11.20
2023-02-23T16:09:21.326Z,11.10
2023-02-23T16:11:56.153Z,11.00
2023-02-23T16:14:24.457Z,10.90
2023-02-23T16:17:08.449Z,10.90
2023-02-23T16:19:41.162Z,10.80
2023-02-23T16:22:19.210Z,10.70
2023-02-23T16:24:53.471Z,10.70
2023-02-23T16:27:20.234Z,10.60
2023-02-23T16:29:47.008Z,10.60
2023-02-23T16:32:23.721Z,10.50
2023-02-23T16:35:00.667Z,10.50
2023-02-23T16:37:27.875Z,10.40
2023-02-23T16:39:58.509Z,10.30
2023-02-23T16:42:34.779Z,10.30
2023-02-23T16:45:02.094Z,10.20
2023-02-23T16:47:50.348Z,10.20
2023-02-23T16:50:21.273Z,10.20
2023-02-23T16:52:53.143Z,10.10
2023-02-23T16:55:26.159Z,10.10
2023-02-23T16:57:56.719Z,10.00
2023-02-23T17:00:32.764Z,9.90
2023-02-23T17:03:00.703Z,9.90
2023-02-23T17:05:29.097Z,9.80
2023-02-23T17:07:58.253Z,9.70
2023-02-23T17:10:31.766Z,9.70
2023-02-23T17:13:03.164Z,9.60
2023-02-23T17:15:33.857Z,9.50
2023-02-23T17:18:00.704Z,9.50
2023-02-23T17:20:28.332Z,9.40
2023-02-23T17:22:57.853Z,9.40
2023-02-23T17:25:26.462Z,9.30
2023-02-23T17:27:57.719Z,9.20
2023-02-23T17:30:25.509Z,9.20
2023-02-23T17:32:54.210Z,9.20
2023-02-23T17:35:21.472Z,9.10
2023-02-23T17:37:48.531Z,9.10
2023-02-23T17:40:28.394Z,9.10
2023-02-23T17:42:57.044Z,9.00
2023-02-23T17:45:24.492Z,9.00
2023-02-23T17:47:52.069Z,9.00
2023-02-23T17:50:22.587Z,8.90
2023-02-23T17:52:50.994Z,8.90
2023-02-23T17:55:18.959Z,8.90
2023-02-23T17:57:46.062Z,8.70
2023-02-23T18:00:15.496Z,8.70
2023-02-23T18:02:44.453Z,8.70
2023-02-23T18:05:12.460Z,8.70
2023-02-23T18:07:39.691Z,8.70
2023-02-23T18:10:07.296Z,8.70
2023-02-23T18:12:34.246Z,8.60
2023-02-23T18:15:02.520Z,8.60
2023-02-23T18:17:33.727Z,8.60
2023-02-23T18:20:00.959Z,8.60
2023-02-23T18:22:27.774Z,8.60
2023-02-23T18:24:55.713Z,8.60
2023-02-23T18:27:24.541Z,8.50
2023-02-23T18:29:51.268Z,8.50
2023-02-23T18:32:18.173Z,8.40
2023-02-23T18:34:45.090Z,8.40
2023-02-23T18:37:11.874Z,8.40
2023-02-23T18:39:38.658Z,8.30
2023-02-23T18:42:05.740Z,8.30
2023-02-23T18:44:35.030Z,8.30
2023-02-23T18:47:02.444Z,8.20
2023-02-23T18:49:29.326Z,8.20
2023-02-23T18:51:56.084Z,8.20
2023-02-23T18:54:25.955Z,8.20
2023-02-23T18:56:52.796Z,8.20
2023-02-23T18:59:19.573Z,8.10
2023-02-23T19:01:47.932Z,8.10
2023-02-23T19:04:15.080Z,8.10
2023-02-23T19:06:44.363Z,8.10
2023-02-23T19:09:14.270Z,8.10
2023-02-23T19:11:42.763Z,8.10
2023-02-23T19:14:13.431Z,8.10
2023-02-23T19:16:41.157Z,8.00
2023-02-23T19:19:09.337Z,8.00
2023-02-23T19:21:36.459Z,8.10
2023-02-23T19:24:04.334Z,8.00
2023-02-23T19:26:33.632Z,8.00
2023-02-23T19:29:00.958Z,8.00
2023-02-23T19:31:28.531Z,8.00
2023-02-23T19:33:56.530Z,8.00
2023-02-23T19:36:29.613Z,8.00
2023-02-23T19:39:05.834Z,8.00
2023-02-23T19:41:33.678Z,8.00
2023-02-23T19:44:00.714Z,8.00
2023-02-23T19:46:28.039Z,7.90
2023-02-23T19:48:55.787Z,7.90
2023-02-23T19:51:23.847Z,7.90
2023-02-23T19:53:56.348Z,7.90
2023-02-23T19:56:24.964Z,7.90
2023-02-23T19:58:52.410Z,7.80
2023-02-23T20:01:21.321Z,7.80
2023-02-23T20:03:55.474Z,7.80
2023-02-23T20:06:27.637Z,7.80
2023-02-23T20:08:55.177Z,7.80
2023-02-23T20:11:22.623Z,7.70
2023-02-23T20:13:50.940Z,7.70
2023-02-23T20:16:17.744Z,7.70
2023-02-23T20:18:44.759Z,7.70
2023-02-23T20:21:17.732Z,7.60
2023-02-23T20:23:46.160Z,7.60
2023-02-23T20:26:20.375Z,7.60
2023-02-23T20:28:47.513Z,7.60
2023-02-23T20:31:21.310Z,7.50
2023-02-23T20:33:51.340Z,7.50
2023-02-23T20:36:20.626Z,7.50
2023-02-23T20:38:47.470Z,7.50
2023-02-23T20:41:14.369Z,7.50
2023-02-23T20:43:41.170Z,7.50
2023-02-23T20:46:07.955Z,7.50
2023-02-23T20:48:35.572Z,7.40
2023-02-23T20:51:02.475Z,7.50
2023-02-23T20:53:30.071Z,7.40
2023-02-23T20:55:56.976Z,7.40
2023-02-23T20:58:24.921Z,7.40
2023-02-23T21:00:54.708Z,7.40
2023-02-23T21:03:21.825Z,7.40
2023-02-23T21:05:49.021Z,7.40
2023-02-23T21:08:15.816Z,7.40
2023-02-23T21:10:42.952Z,7.40
2023-02-23T21:13:12.653Z,7.40
2023-02-23T21:15:40.949Z,7.40
2023-02-23T21:18:08.054Z,7.40
2023-02-23T21:20:36.613Z,7.40
2023-02-23T21:23:04.404Z,7.30
2023-02-23T21:25:31.750Z,7.30
2023-02-23T21:28:01.879Z,7.30
2023-02-23T21:30:29.179Z,7.30
2023-02-23T21:32:57.483Z,7.30
2023-02-23T21:35:24.648Z,7.30
2023-02-23T21:37:52.661Z,7.30
2023-02-23T21:40:21.025Z,7.30
2023-02-23T21:42:49.354Z,7.30
2023-02-23T21:45:17.119Z,7.30
2023-02-23T21:47:45.927Z,7.30
2023-02-23T21:50:16.454Z,7.30
2023-02-23T21:52:45.195Z,7.20
2023-02-23T21:55:23.481Z,7.20
2023-02-23T21:57:51.827Z,7.20
2023-02-23T22:00:19.213Z,7.20
2023-02-23T22:02:46.643Z,7.20
2023-02-23T22:05:15.472Z,7.10
2023-02-23T22:07:47.204Z,7.00
2023-02-23T22:10:13.998Z,7.00
2023-02-23T22:12:40.705Z,7.10
2023-02-23T22:15:08.655Z,7.00
2023-02-23T22:17:36.133Z,7.00
2023-02-23T22:20:05.397Z,7.00
2023-02-23T22:22:36.003Z,7.00
2023-02-23T22:25:04.769Z,6.90
2023-02-23T22:27:31.989Z,6.90
2023-02-23T22:30:01.938Z,6.90
2023-02-23T22:32:32.990Z,6.90
2023-02-23T22:35:01.012Z,6.90
2023-02-23T22:37:31.902Z,6.80
2023-02-23T22:40:08.091Z,6.80
2023-02-23T22:42:35.451Z,6.80
2023-02-23T22:45:02.392Z,6.80
2023-02-23T22:47:29.200Z,6.80
2023-02-23T22:49:55.891Z,6.80
2023-02-23T22:52:22.691Z,6.80
2023-02-23T22:54:51.178Z,6.80
2023-02-23T22:57:17.932Z,6.80
2023-02-23T22:59:54.589Z,6.80
2023-02-23T23:02:22.692Z,6.80
2023-02-23T23:04:49.658Z,6.80
2023-02-23T23:07:19.887Z,6.80
2023-02-23T23:09:46.824Z,6.80
2023-02-23T23:12:13.628Z,6.70
2023-02-23T23:14:40.321Z,6.70
2023-02-23T23:17:07.139Z,6.70
2023-02-23T23:19:39.000Z,6.80
2023-02-23T23:22:05.884Z,6.70
2023-02-23T23:24:32.713Z,6.70
2023-02-23T23:27:00.834Z,6.70
2023-02-23T23:29:30.479Z,6.70
2023-02-23T23:31:57.448Z,6.70
2023-02-23T23:34:25.231Z,6.70
2023-02-23T23:36:53.151Z,6.60
2023-02-23T23:39:22.553Z,6.60
2023-02-23T23:41:51.218Z,6.60
2023-02-23T23:44:21.298Z,6.60
2023-02-23T23:46:50.610Z,6.60
2023-02-23T23:49:20.457Z,6.60
2023-02-23T23:51:50.356Z,6.50
2023-02-23T23:54:23.388Z,6.50
2023-02-23T23:56:50.761Z,6.50
2023-02-23T23:59:21.245Z,6.50
